Time;durP1;ratioP1;P1;durP2;ratioP2;P2;SDS_P1;SDS_P2;PMS_P1;PMS_P2;Temp;Humidity;BMP_temperature;BMP_pressure;BME280_temperature;BME280_humidity;BME280_pressure;Samples;Min_cycle;Max_cycle;Signal;HPM_P1;HPM_P2
2021/09/20 00:00:45;;;;;;;19.27;7.38;;;;;;;;;;5028051;28;20112;-73
2021/09/20 00:03:11;;;;;;;18.67;8.43;;;;;;;;;;5028326;28;20032;-75
2021/09/20 00:05:37;;;;;;;22.75;7.43;;;;;;;;;;5027694;28;20028;-74
2021/09/20 00:08:04;;;;;;;23.33;8.35;;;;;;;;;;5027940;28;20033;-74
2021/09/20 00:10:30;;;;;;;24.67;8.13;;;;;;;;;;5027793;28;20044;-74
2021/09/20 00:12:57;;;;;;;13.93;7.60;;;;;;;;;;5026311;28;20555;-75
2021/09/20 00:15:23;;;;;;;13.30;7.45;;;;;;;;;;5027705;28;20025;-74
2021/09/20 00:17:49;;;;;;;21.35;7.28;;;;;;;;;;5027803;28;20116;-77
2021/09/20 00:20:15;;;;;;;23.75;7.43;;;;;;;;;;5027908;28;20025;-76
2021/09/20 00:22:42;;;;;;;13.95;7.05;;;;;;;;;;5027805;28;20017;-77
2021/09/20 00:25:08;;;;;;;16.13;7.60;;;;;;;;;;5026431;28;20436;-75
2021/09/20 00:27:34;;;;;;;13.90;6.60;;;;;;;;;;5027956;28;20104;-74
2021/09/20 00:30:01;;;;;;;20.08;7.00;;;;;;;;;;5027690;28;20489;-74
2021/09/20 00:32:27;;;;;;;15.75;6.40;;;;;;;;;;5027527;28;20072;-73
2021/09/20 00:34:53;;;;;;;23.00;8.07;;;;;;;;;;5025297;28;20014;-74
2021/09/20 00:37:20;;;;;;;23.30;7.65;;;;;;;;;;5027766;28;20101;-74
2021/09/20 00:39:46;;;;;;;20.35;7.20;;;;;;;;;;5027219;28;20048;-76
2021/09/20 00:42:12;;;;;;;16.27;7.55;;;;;;;;;;5027372;28;20113;-75
2021/09/20 00:44:38;;;;;;;20.30;7.38;;;;;;;;;;5026114;28;20030;-74
2021/09/20 00:47:05;;;;;;;19.40;8.00;;;;;;;;;;5027346;28;20038;-77
2021/09/20 00:49:31;;;;;;;19.98;7.38;;;;;;;;;;5009211;28;20478;-74
2021/09/20 00:51:57;;;;;;;17.00;7.35;;;;;;;;;;5027436;28;20507;-78
2021/09/20 00:54:24;;;;;;;12.52;6.50;;;;;;;;;;5027477;28;20151;-75
2021/09/20 00:56:50;;;;;;;16.65;7.53;;;;;;;;;;5026037;28;20017;-74
2021/09/20 00:59:17;;;;;;;19.42;6.30;;;;;;;;;;5026800;28;20017;-74
2021/09/20 01:01:44;;;;;;;14.68;5.60;;;;;;;;;;5026890;28;20026;-75
2021/09/20 01:04:10;;;;;;;11.77;5.43;;;;;;;;;;5009258;28;20446;-76
2021/09/20 01:06:36;;;;;;;22.20;6.07;;;;;;;;;;5025183;28;20635;-73
2021/09/20 01:09:02;;;;;;;14.77;5.97;;;;;;;;;;5027180;28;20056;-76
2021/09/20 01:11:29;;;;;;;19.33;5.22;;;;;;;;;;5026766;28;20033;-78
2021/09/20 01:13:55;;;;;;;13.32;5.10;;;;;;;;;;5007501;28;20026;-75
2021/09/20 01:16:21;;;;;;;12.27;5.60;;;;;;;;;;5006049;28;20030;-78
2021/09/20 01:18:47;;;;;;;11.93;5.63;;;;;;;;;;5002980;28;20078;-74
2021/09/20 01:21:14;;;;;;;15.60;5.70;;;;;;;;;;5009388;28;20392;-75
2021/09/20 01:23:40;;;;;;;17.70;5.57;;;;;;;;;;5026311;28;20018;-74
2021/09/20 01:26:06;;;;;;;15.38;5.50;;;;;;;;;;5026922;28;20627;-77
2021/09/20 01:28:32;;;;;;;11.30;4.70;;;;;;;;;;5026909;28;20029;-78
2021/09/20 01:30:59;;;;;;;17.27;5.15;;;;;;;;;;5025584;28;20033;-74
2021/09/20 01:33:25;;;;;;;11.23;4.47;;;;;;;;;;5026494;28;20142;-78
2021/09/20 01:35:51;;;;;;;9.15;4.07;;;;;;;;;;5025764;28;20087;-75
2021/09/20 01:38:17;;;;;;;9.85;4.25;;;;;;;;;;5027104;28;20030;-74
2021/09/20 01:40:43;;;;;;;7.22;3.92;;;;;;;;;;5026632;28;20037;-77
2021/09/20 01:43:09;;;;;;;11.73;4.60;;;;;;;;;;5025341;28;20034;-73
2021/09/20 01:45:36;;;;;;;10.20;4.78;;;;;;;;;;5026627;28;20065;-75
2021/09/20 01:48:02;;;;;;;16.63;4.65;;;;;;;;;;5026378;28;20025;-73
2021/09/20 01:50:28;;;;;;;13.95;4.05;;;;;;;;;;5026568;28;20091;-75
2021/09/20 01:52:54;;;;;;;10.00;3.78;;;;;;;;;;5026202;28;20033;-73
2021/09/20 01:55:20;;;;;;;13.25;4.82;;;;;;;;;;5026412;28;20037;-74
2021/09/20 01:57:47;;;;;;;6.85;3.65;;;;;;;;;;5025130;28;20021;-74
2021/09/20 02:00:14;;;;;;;9.13;3.20;;;;;;;;;;5026288;28;20095;-75
2021/09/20 02:02:41;;;;;;;12.07;3.92;;;;;;;;;;5023989;28;20044;-75
2021/09/20 02:05:08;;;;;;;7.78;3.67;;;;;;;;;;5012848;28;20029;-73
2021/09/20 02:07:34;;;;;;;11.55;3.50;;;;;;;;;;5012690;28;20543;-74
2021/09/20 02:10:00;;;;;;;9.80;3.88;;;;;;;;;;5015084;28;20044;-74
2021/09/20 02:12:27;;;;;;;9.75;3.78;;;;;;;;;;5011194;28;20029;-73
2021/09/20 02:14:54;;;;;;;10.98;4.75;;;;;;;;;;5000114;28;20077;-73
2021/09/20 02:17:20;;;;;;;10.70;4.50;;;;;;;;;;5016249;28;20551;-74
2021/09/20 02:19:46;;;;;;;11.82;4.43;;;;;;;;;;5021209;28;20620;-74
2021/09/20 02:22:12;;;;;;;16.98;5.22;;;;;;;;;;5010851;28;20034;-73
2021/09/20 02:24:39;;;;;;;15.40;4.82;;;;;;;;;;5000512;28;20058;-73
2021/09/20 02:27:06;;;;;;;12.43;4.15;;;;;;;;;;5001995;28;20105;-73
2021/09/20 02:29:32;;;;;;;9.52;3.58;;;;;;;;;;5015924;28;20116;-73
2021/09/20 02:31:58;;;;;;;9.43;3.90;;;;;;;;;;5020897;28;20466;-73
2021/09/20 02:34:24;;;;;;;8.57;3.95;;;;;;;;;;5018321;28;20026;-73
2021/09/20 02:36:51;;;;;;;10.52;4.30;;;;;;;;;;5023686;28;20029;-72
2021/09/20 02:39:17;;;;;;;10.68;3.35;;;;;;;;;;5024663;28;20021;-73
2021/09/20 02:41:43;;;;;;;6.90;4.03;;;;;;;;;;5024909;28;20033;-73
2021/09/20 02:44:12;;;;;;;10.32;3.45;;;;;;;;;;5024896;28;20029;-73
2021/09/20 02:46:38;;;;;;;10.57;3.13;;;;;;;;;;5025085;28;20218;-73
2021/09/20 02:49:04;;;;;;;11.13;3.78;;;;;;;;;;5023462;28;20034;-72
2021/09/20 02:51:30;;;;;;;9.00;3.70;;;;;;;;;;5024659;28;20036;-73
2021/09/20 02:53:57;;;;;;;7.15;3.20;;;;;;;;;;5024927;28;20030;-73
2021/09/20 02:56:23;;;;;;;8.18;3.50;;;;;;;;;;5024289;28;20862;-73
2021/09/20 02:58:50;;;;;;;7.53;3.45;;;;;;;;;;5024249;28;20025;-73
2021/09/20 03:01:16;;;;;;;10.57;3.90;;;;;;;;;;5024086;28;20025;-73
2021/09/20 03:03:42;;;;;;;10.73;3.60;;;;;;;;;;5020761;28;20037;-76
2021/09/20 03:06:08;;;;;;;14.57;3.50;;;;;;;;;;5008018;28;20034;-72
2021/09/20 03:08:34;;;;;;;8.80;3.00;;;;;;;;;;5005605;28;20033;-73
2021/09/20 03:11:00;;;;;;;8.98;3.00;;;;;;;;;;5024136;28;20052;-73
2021/09/20 03:13:27;;;;;;;13.10;3.97;;;;;;;;;;5024270;28;20787;-72
2021/09/20 03:15:53;;;;;;;10.15;3.60;;;;;;;;;;5022953;28;20413;-73
2021/09/20 03:18:19;;;;;;;6.97;3.13;;;;;;;;;;5024126;28;20022;-73
2021/09/20 03:20:45;;;;;;;6.68;2.95;;;;;;;;;;5024467;28;20026;-72
2021/09/20 03:23:11;;;;;;;7.10;2.60;;;;;;;;;;5023952;28;20021;-74
2021/09/20 03:25:37;;;;;;;7.30;3.00;;;;;;;;;;5022976;28;20095;-73
2021/09/20 03:28:04;;;;;;;11.63;2.40;;;;;;;;;;5024058;28;20485;-76
2021/09/20 03:30:30;;;;;;;7.13;2.60;;;;;;;;;;5023817;28;20030;-73
2021/09/20 03:32:56;;;;;;;4.80;2.13;;;;;;;;;;5023215;28;20086;-72
2021/09/20 03:35:22;;;;;;;5.80;2.28;;;;;;;;;;5022489;28;20028;-73
2021/09/20 03:37:49;;;;;;;6.07;2.15;;;;;;;;;;5020835;28;20029;-74
2021/09/20 03:40:17;;;;;;;6.75;2.30;;;;;;;;;;5017882;28;20018;-73
2021/09/20 03:42:43;;;;;;;8.52;2.13;;;;;;;;;;5021552;28;20033;-72
2021/09/20 03:45:10;;;;;;;4.97;2.42;;;;;;;;;;5021635;28;20045;-73
2021/09/20 03:47:36;;;;;;;7.75;2.80;;;;;;;;;;5020635;28;20180;-73
2021/09/20 03:50:03;;;;;;;6.57;2.53;;;;;;;;;;5020069;28;20044;-73
2021/09/20 03:52:29;;;;;;;5.93;2.38;;;;;;;;;;5021019;28;20037;-73
2021/09/20 03:54:56;;;;;;;5.82;2.28;;;;;;;;;;5021068;28;20477;-75
2021/09/20 03:57:22;;;;;;;9.23;2.63;;;;;;;;;;5021064;28;20041;-73
2021/09/20 03:59:48;;;;;;;9.13;2.00;;;;;;;;;;5020412;28;20637;-72
2021/09/20 04:02:14;;;;;;;5.35;2.33;;;;;;;;;;5021403;28;20456;-73
2021/09/20 04:04:41;;;;;;;4.45;2.20;;;;;;;;;;5018734;28;20490;-73
2021/09/20 04:07:08;;;;;;;6.15;2.60;;;;;;;;;;5020540;28;20098;-73
2021/09/20 04:09:34;;;;;;;4.25;2.00;;;;;;;;;;5020931;28;20038;-72
2021/09/20 04:12:01;;;;;;;7.15;2.58;;;;;;;;;;5019206;28;20048;-73
2021/09/20 04:14:27;;;;;;;7.88;2.35;;;;;;;;;;5020599;28;20101;-73
2021/09/20 04:16:53;;;;;;;6.25;2.33;;;;;;;;;;5020368;28;20121;-72
2021/09/20 04:19:19;;;;;;;10.82;2.13;;;;;;;;;;5021049;28;20389;-73
2021/09/20 04:21:46;;;;;;;5.60;1.90;;;;;;;;;;5019477;28;20099;-73
2021/09/20 04:24:12;;;;;;;8.32;2.22;;;;;;;;;;5020548;28;20475;-72
2021/09/20 04:26:38;;;;;;;13.00;2.55;;;;;;;;;;5020767;28;20700;-72
2021/09/20 04:29:04;;;;;;;7.93;2.50;;;;;;;;;;5020809;28;20029;-73
2021/09/20 04:31:30;;;;;;;3.97;1.70;;;;;;;;;;5018814;28;20030;-73
2021/09/20 04:33:56;;;;;;;4.57;1.83;;;;;;;;;;5021069;28;20040;-73
2021/09/20 04:36:22;;;;;;;6.00;1.77;;;;;;;;;;5020083;28;20026;-73
2021/09/20 04:38:49;;;;;;;7.45;2.50;;;;;;;;;;5020468;28;20079;-73
2021/09/20 04:41:15;;;;;;;4.78;2.25;;;;;;;;;;5018279;28;20029;-73
2021/09/20 04:43:41;;;;;;;6.65;2.80;;;;;;;;;;5020540;28;20045;-72
2021/09/20 04:46:07;;;;;;;5.72;2.42;;;;;;;;;;5018160;28;20041;-73
2021/09/20 04:48:33;;;;;;;5.78;1.90;;;;;;;;;;5006607;28;20034;-73
2021/09/20 04:51:00;;;;;;;6.20;1.95;;;;;;;;;;5000519;28;20040;-73
2021/09/20 04:53:26;;;;;;;4.72;1.75;;;;;;;;;;5001054;28;20037;-73
2021/09/20 04:55:52;;;;;;;6.55;2.20;;;;;;;;;;5000595;28;20037;-73
2021/09/20 04:58:18;;;;;;;5.43;2.33;;;;;;;;;;4998971;28;20113;-73
2021/09/20 05:00:45;;;;;;;7.57;1.90;;;;;;;;;;4999979;28;20048;-73
2021/09/20 05:03:11;;;;;;;7.85;2.97;;;;;;;;;;5000831;28;20917;-75
2021/09/20 05:05:37;;;;;;;5.03;2.15;;;;;;;;;;5020257;28;20026;-73
2021/09/20 05:08:03;;;;;;;7.38;2.10;;;;;;;;;;5001885;28;20520;-74
2021/09/20 05:10:29;;;;;;;5.22;1.83;;;;;;;;;;4999995;28;20026;-73
2021/09/20 05:12:56;;;;;;;6.82;2.00;;;;;;;;;;4998806;28;20038;-73
2021/09/20 05:15:22;;;;;;;7.45;2.33;;;;;;;;;;5000149;28;20027;-75
2021/09/20 05:17:48;;;;;;;6.65;1.73;;;;;;;;;;5000278;28;20030;-73
2021/09/20 05:20:15;;;;;;;7.55;2.15;;;;;;;;;;5000083;28;20021;-74
2021/09/20 05:22:42;;;;;;;7.78;2.80;;;;;;;;;;5009521;28;20120;-73
2021/09/20 05:25:09;;;;;;;7.07;2.15;;;;;;;;;;5019574;28;20113;-74
2021/09/20 05:27:36;;;;;;;4.72;2.10;;;;;;;;;;5021252;28;20021;-74
2021/09/20 05:30:02;;;;;;;5.68;3.08;;;;;;;;;;5021108;28;20032;-74
2021/09/20 05:32:29;;;;;;;9.77;4.47;;;;;;;;;;5014962;28;20026;-75
2021/09/20 05:34:55;;;;;;;11.48;3.90;;;;;;;;;;5019746;28;20026;-74
2021/09/20 05:37:21;;;;;;;5.90;3.60;;;;;;;;;;5019432;28;20040;-74
2021/09/20 05:39:47;;;;;;;6.03;3.13;;;;;;;;;;5017969;28;20032;-73
2021/09/20 05:42:15;;;;;;;8.13;3.20;;;;;;;;;;5020984;28;20033;-74
2021/09/20 05:44:42;;;;;;;8.77;3.10;;;;;;;;;;5021688;28;20036;-74
2021/09/20 05:47:08;;;;;;;7.65;2.88;;;;;;;;;;5016798;28;20026;-75
2021/09/20 05:49:34;;;;;;;7.85;2.53;;;;;;;;;;5017430;28;20048;-74
2021/09/20 05:52:01;;;;;;;6.50;3.05;;;;;;;;;;5021180;28;20084;-75
2021/09/20 05:54:27;;;;;;;6.53;3.17;;;;;;;;;;5016884;28;20020;-74
2021/09/20 05:56:53;;;;;;;5.07;2.85;;;;;;;;;;5002013;28;20029;-75
2021/09/20 05:59:19;;;;;;;4.85;2.50;;;;;;;;;;5004364;28;20025;-74
2021/09/20 06:01:45;;;;;;;6.95;2.45;;;;;;;;;;5021924;28;20045;-74
2021/09/20 06:04:11;;;;;;;5.20;2.40;;;;;;;;;;5021946;28;20038;-74
2021/09/20 06:06:37;;;;;;;6.55;3.13;;;;;;;;;;5020069;28;20028;-74
2021/09/20 06:09:03;;;;;;;8.02;2.95;;;;;;;;;;5004920;28;20034;-74
2021/09/20 06:11:30;;;;;;;8.65;3.00;;;;;;;;;;5020210;28;20142;-74
2021/09/20 06:13:57;;;;;;;4.45;2.25;;;;;;;;;;5025533;28;20102;-75
2021/09/20 06:16:23;;;;;;;5.68;2.47;;;;;;;;;;5025372;28;20029;-75
2021/09/20 06:18:50;;;;;;;5.25;2.67;;;;;;;;;;5024733;28;20482;-74
2021/09/20 06:21:19;;;;;;;4.88;2.20;;;;;;;;;;5023918;28;20034;-75
2021/09/20 06:23:46;;;;;;;7.45;2.70;;;;;;;;;;5024801;28;20036;-74
2021/09/20 06:26:12;;;;;;;7.28;2.40;;;;;;;;;;5025389;28;20030;-75
2021/09/20 06:28:38;;;;;;;8.02;2.70;;;;;;;;;;5025329;28;20028;-74
2021/09/20 06:31:04;;;;;;;7.18;2.55;;;;;;;;;;5024888;28;20034;-74
2021/09/20 06:33:31;;;;;;;5.20;2.33;;;;;;;;;;5023725;28;20021;-74
2021/09/20 06:35:58;;;;;;;7.85;2.42;;;;;;;;;;5025051;28;20021;-75
2021/09/20 06:38:24;;;;;;;8.75;2.72;;;;;;;;;;5025128;28;20086;-75
2021/09/20 06:40:51;;;;;;;5.22;2.55;;;;;;;;;;5024874;28;20109;-74
2021/09/20 06:43:17;;;;;;;7.22;3.13;;;;;;;;;;5005118;28;20552;-74
2021/09/20 06:45:44;;;;;;;10.52;3.38;;;;;;;;;;5024709;28;20549;-75
2021/09/20 06:48:10;;;;;;;6.97;3.45;;;;;;;;;;5024686;28;20036;-75
2021/09/20 06:50:36;;;;;;;6.57;2.75;;;;;;;;;;5006380;28;20056;-73
2021/09/20 06:53:03;;;;;;;9.85;2.90;;;;;;;;;;5023139;28;20477;-75
2021/09/20 06:55:29;;;;;;;6.63;2.85;;;;;;;;;;5024801;28;20024;-74
2021/09/20 06:57:58;;;;;;;6.25;2.80;;;;;;;;;;5024785;28;20120;-74
2021/09/20 07:00:25;;;;;;;9.77;2.97;;;;;;;;;;5024505;28;20109;-74
2021/09/20 07:02:51;;;;;;;7.18;3.13;;;;;;;;;;5024486;28;20033;-74
2021/09/20 07:05:17;;;;;;;7.95;2.60;;;;;;;;;;5024359;28;20022;-74
2021/09/20 07:07:43;;;;;;;7.18;3.20;;;;;;;;;;5022894;28;20417;-74
2021/09/20 07:10:12;;;;;;;8.10;2.90;;;;;;;;;;5024478;28;20026;-74
2021/09/20 07:12:38;;;;;;;7.13;3.10;;;;;;;;;;5024043;28;20044;-74
2021/09/20 07:15:04;;;;;;;11.77;3.45;;;;;;;;;;5024375;28;20032;-74
2021/09/20 07:17:31;;;;;;;9.45;2.70;;;;;;;;;;5023283;28;20029;-74
2021/09/20 07:19:57;;;;;;;6.30;2.58;;;;;;;;;;5024365;28;20053;-74
2021/09/20 07:22:23;;;;;;;7.32;3.05;;;;;;;;;;5022967;28;20025;-74
2021/09/20 07:24:50;;;;;;;9.55;3.35;;;;;;;;;;5023659;28;20040;-73
2021/09/20 07:27:16;;;;;;;8.15;2.90;;;;;;;;;;5022679;28;20028;-75
2021/09/20 07:29:42;;;;;;;7.40;3.63;;;;;;;;;;5024306;28;20036;-74
2021/09/20 07:32:08;;;;;;;9.70;3.97;;;;;;;;;;5023515;28;20756;-74
2021/09/20 07:34:35;;;;;;;7.47;3.45;;;;;;;;;;5024016;28;20029;-74
2021/09/20 07:37:01;;;;;;;11.65;3.28;;;;;;;;;;5023561;28;20030;-75
2021/09/20 07:39:27;;;;;;;9.45;3.50;;;;;;;;;;5022230;28;20551;-74
2021/09/20 07:41:53;;;;;;;10.35;4.07;;;;;;;;;;5023967;28;20053;-74
2021/09/20 07:44:19;;;;;;;10.07;4.43;;;;;;;;;;5024242;28;20536;-75
2021/09/20 07:46:45;;;;;;;11.25;4.13;;;;;;;;;;5023580;28;20285;-74
2021/09/20 07:49:11;;;;;;;9.57;4.10;;;;;;;;;;5021328;28;20025;-75
2021/09/20 07:51:38;;;;;;;10.77;3.90;;;;;;;;;;5020855;28;20095;-74
2021/09/20 07:54:04;;;;;;;10.65;3.65;;;;;;;;;;5021948;28;20056;-73
2021/09/20 07:56:32;;;;;;;8.63;2.80;;;;;;;;;;5023532;28;20025;-73
2021/09/20 07:59:01;;;;;;;8.02;3.05;;;;;;;;;;5024056;28;20236;-75
2021/09/20 08:01:27;;;;;;;10.50;3.17;;;;;;;;;;5023692;28;20075;-75
2021/09/20 08:03:53;;;;;;;11.52;3.42;;;;;;;;;;5004194;28;20064;-74
2021/09/20 08:06:19;;;;;;;11.85;3.22;;;;;;;;;;5024005;28;20083;-75
2021/09/20 08:08:46;;;;;;;5.45;2.60;;;;;;;;;;5023232;28;20469;-75
2021/09/20 08:11:12;;;;;;;6.55;3.38;;;;;;;;;;5022563;28;20033;-75
2021/09/20 08:13:39;;;;;;;10.27;3.38;;;;;;;;;;5017201;28;20181;-75
2021/09/20 08:16:05;;;;;;;12.65;3.25;;;;;;;;;;5019726;28;20396;-74
2021/09/20 08:18:32;;;;;;;9.57;2.67;;;;;;;;;;5004413;28;20022;-74
2021/09/20 08:20:58;;;;;;;9.15;3.15;;;;;;;;;;5022713;28;20105;-73
2021/09/20 08:23:25;;;;;;;6.93;3.20;;;;;;;;;;5022952;28;20486;-73
2021/09/20 08:25:52;;;;;;;11.68;3.53;;;;;;;;;;5011566;28;20025;-74
2021/09/20 08:28:18;;;;;;;6.07;2.78;;;;;;;;;;5008456;28;20029;-74
2021/09/20 08:30:44;;;;;;;12.30;4.03;;;;;;;;;;5004686;28;20029;-73
2021/09/20 08:33:11;;;;;;;11.65;3.25;;;;;;;;;;5021900;28;20038;-73
2021/09/20 08:35:37;;;;;;;8.52;3.00;;;;;;;;;;5022666;28;20056;-73
2021/09/20 08:38:04;;;;;;;8.27;3.22;;;;;;;;;;5008720;28;20481;-74
2021/09/20 08:40:31;;;;;;;13.52;3.30;;;;;;;;;;5003238;28;20021;-73
2021/09/20 08:42:58;;;;;;;6.13;2.85;;;;;;;;;;5002879;28;20442;-74
2021/09/20 08:45:25;;;;;;;12.77;3.00;;;;;;;;;;5009630;28;20120;-75
2021/09/20 08:47:52;;;;;;;6.60;2.95;;;;;;;;;;5022380;28;20026;-74
2021/09/20 08:50:24;;;;;;;5.10;2.60;;;;;;;;;;5021221;28;20515;-74
2021/09/20 08:52:50;;;;;;;9.82;2.83;;;;;;;;;;5022364;28;20172;-74
2021/09/20 08:55:17;;;;;;;14.18;3.50;;;;;;;;;;5022425;28;20173;-73
2021/09/20 08:57:43;;;;;;;6.97;2.40;;;;;;;;;;5021656;28;20025;-73
2021/09/20 09:00:10;;;;;;;5.35;2.97;;;;;;;;;;5014700;28;20022;-73
2021/09/20 09:02:36;;;;;;;10.32;3.50;;;;;;;;;;5019839;28;20031;-74
2021/09/20 09:05:14;;;;;;;7.82;3.40;;;;;;;;;;5001795;28;20124;-73
2021/09/20 09:07:41;;;;;;;11.70;3.03;;;;;;;;;;5021687;28;20021;-74
2021/09/20 09:10:08;;;;;;;11.02;3.35;;;;;;;;;;5021758;28;20662;-73
2021/09/20 09:12:36;;;;;;;8.27;2.90;;;;;;;;;;5021896;28;20036;-74
2021/09/20 09:15:03;;;;;;;6.00;2.83;;;;;;;;;;5021959;28;20032;-73
2021/09/20 09:17:32;;;;;;;6.55;2.70;;;;;;;;;;5020838;28;20734;-74
2021/09/20 09:20:05;;;;;;;7.97;3.22;;;;;;;;;;5016847;28;20458;-74
2021/09/20 09:22:39;;;;;;;7.05;2.53;;;;;;;;;;5025826;28;20052;-74
2021/09/20 09:25:06;;;;;;;7.22;2.58;;;;;;;;;;5023871;28;20342;-74
2021/09/20 09:27:35;;;;;;;8.60;3.20;;;;;;;;;;5025363;28;20037;-74
2021/09/20 09:30:05;;;;;;;7.53;2.72;;;;;;;;;;5004239;28;20109;-73
2021/09/20 09:32:31;;;;;;;8.55;2.78;;;;;;;;;;5022101;28;20037;-73
2021/09/20 09:34:59;;;;;;;8.32;2.70;;;;;;;;;;5021156;28;20029;-74
2021/09/20 09:37:26;;;;;;;7.55;2.83;;;;;;;;;;5016392;28;20030;-74
2021/09/20 09:40:04;;;;;;;7.10;3.03;;;;;;;;;;5000664;28;20017;-73
2021/09/20 09:42:30;;;;;;;7.95;2.85;;;;;;;;;;5015247;28;20177;-74
2021/09/20 09:44:57;;;;;;;10.48;3.00;;;;;;;;;;5020610;28;20083;-74
2021/09/20 09:47:24;;;;;;;6.18;2.60;;;;;;;;;;5004205;28;20468;-74
2021/09/20 09:50:10;;;;;;;9.13;3.28;;;;;;;;;;5021552;28;20013;-74
2021/09/20 09:52:37;;;;;;;6.90;2.60;;;;;;;;;;5020613;28;20544;-75
2021/09/20 09:55:04;;;;;;;8.32;2.85;;;;;;;;;;5020652;28;20033;-73
2021/09/20 09:57:31;;;;;;;8.48;2.88;;;;;;;;;;5021510;28;20670;-75
2021/09/20 09:59:59;;;;;;;9.35;2.83;;;;;;;;;;5038207;28;20477;-75
2021/09/20 10:02:28;;;;;;;8.57;2.70;;;;;;;;;;5041679;28;20047;-75
2021/09/20 10:04:57;;;;;;;8.02;3.35;;;;;;;;;;5040000;28;20033;-75
2021/09/20 10:07:34;;;;;;;7.38;3.00;;;;;;;;;;5023779;28;20025;-74
2021/09/20 10:10:01;;;;;;;7.78;3.45;;;;;;;;;;5034705;28;20470;-75
2021/09/20 10:12:29;;;;;;;7.45;2.72;;;;;;;;;;5021195;28;20048;-75
2021/09/20 10:14:56;;;;;;;9.77;2.45;;;;;;;;;;5020830;28;20020;-74
2021/09/20 10:17:24;;;;;;;7.10;2.97;;;;;;;;;;5019900;28;20483;-74
2021/09/20 10:19:50;;;;;;;5.88;2.10;;;;;;;;;;5020411;28;20056;-74
2021/09/20 10:22:16;;;;;;;8.35;2.85;;;;;;;;;;5020439;28;20052;-74
2021/09/20 10:24:44;;;;;;;8.95;2.80;;;;;;;;;;5021031;28;20026;-74
2021/09/20 10:27:13;;;;;;;11.18;2.70;;;;;;;;;;5020350;28;20132;-75
2021/09/20 10:29:40;;;;;;;8.05;2.55;;;;;;;;;;5020337;28;20026;-75
2021/09/20 10:32:07;;;;;;;8.20;2.60;;;;;;;;;;5018406;28;20075;-75
2021/09/20 10:34:33;;;;;;;5.63;2.22;;;;;;;;;;5020406;28;20327;-74
2021/09/20 10:37:00;;;;;;;10.82;2.38;;;;;;;;;;5029502;28;20520;-74
2021/09/20 10:39:44;;;;;;;5.65;2.15;;;;;;;;;;5020869;28;20040;-74
2021/09/20 10:42:11;;;;;;;16.50;2.55;;;;;;;;;;5020115;28;20087;-74
2021/09/20 10:44:38;;;;;;;6.03;2.60;;;;;;;;;;5019572;28;20416;-74
2021/09/20 10:47:15;;;;;;;10.23;2.40;;;;;;;;;;5017921;28;20049;-74
2021/09/20 10:49:51;;;;;;;6.75;2.35;;;;;;;;;;5019466;28;20104;-74
2021/09/20 10:52:17;;;;;;;6.55;2.60;;;;;;;;;;5019481;28;20034;-75
2021/09/20 10:55:04;;;;;;;11.88;2.80;;;;;;;;;;5019699;28;20628;-74
2021/09/20 10:57:30;;;;;;;6.28;2.15;;;;;;;;;;5022404;28;20022;-75
2021/09/20 11:00:15;;;;;;;5.72;2.30;;;;;;;;;;5022695;28;20022;-75
2021/09/20 11:02:41;;;;;;;6.68;2.10;;;;;;;;;;5024747;28;20067;-74
2021/09/20 11:05:09;;;;;;;8.30;2.60;;;;;;;;;;5024469;28;20037;-74
2021/09/20 11:07:48;;;;;;;6.97;2.60;;;;;;;;;;5023965;28;20065;-75
2021/09/20 11:10:14;;;;;;;10.38;2.55;;;;;;;;;;5006004;28;20033;-74
2021/09/20 11:12:57;;;;;;;7.25;2.45;;;;;;;;;;5004041;28;20127;-74
2021/09/20 11:15:23;;;;;;;9.48;2.38;;;;;;;;;;5024328;28;20429;-74
2021/09/20 11:17:51;;;;;;;7.32;2.80;;;;;;;;;;5024144;28;20025;-74
2021/09/20 11:20:22;;;;;;;7.35;2.90;;;;;;;;;;5024136;28;20021;-73
2021/09/20 11:22:48;;;;;;;6.07;2.40;;;;;;;;;;5023688;28;20026;-74
2021/09/20 11:25:16;;;;;;;4.85;2.47;;;;;;;;;;5022535;28;20308;-73
2021/09/20 11:27:44;;;;;;;5.90;2.03;;;;;;;;;;5023634;28;20025;-73
2021/09/20 11:30:15;;;;;;;10.18;2.47;;;;;;;;;;5023145;28;20071;-74
2021/09/20 11:32:45;;;;;;;7.82;2.85;;;;;;;;;;5023849;28;20040;-75
2021/09/20 11:35:12;;;;;;;5.67;2.10;;;;;;;;;;5020783;28;20413;-73
2021/09/20 11:37:38;;;;;;;6.00;2.15;;;;;;;;;;5004117;28;20306;-73
2021/09/20 11:40:09;;;;;;;5.20;2.08;;;;;;;;;;5004598;28;20504;-76
2021/09/20 11:42:35;;;;;;;8.32;2.47;;;;;;;;;;5003908;28;20058;-74
2021/09/20 11:45:04;;;;;;;3.53;2.08;;;;;;;;;;5003705;28;20022;-73
2021/09/20 11:47:34;;;;;;;7.93;2.55;;;;;;;;;;5006334;28;20025;-74
2021/09/20 11:50:05;;;;;;;6.13;2.50;;;;;;;;;;5022337;28;20041;-73
2021/09/20 11:52:31;;;;;;;3.67;2.30;;;;;;;;;;5023956;28;20706;-75
2021/09/20 11:54:57;;;;;;;5.78;2.00;;;;;;;;;;5023280;28;20025;-74
2021/09/20 11:57:24;;;;;;;5.60;2.33;;;;;;;;;;5023335;28;20041;-74
2021/09/20 11:59:51;;;;;;;6.57;2.53;;;;;;;;;;5023730;28;20923;-73
2021/09/20 12:02:30;;;;;;;7.15;2.50;;;;;;;;;;5021805;28;20121;-74
2021/09/20 12:04:56;;;;;;;10.10;2.63;;;;;;;;;;5023588;28;20155;-75
2021/09/20 12:07:32;;;;;;;4.07;2.10;;;;;;;;;;5022064;28;20053;-75
2021/09/20 12:09:59;;;;;;;12.38;3.17;;;;;;;;;;5023481;28;20108;-73
2021/09/20 12:12:26;;;;;;;7.32;2.30;;;;;;;;;;5023050;28;20568;-74
2021/09/20 12:14:57;;;;;;;8.52;2.17;;;;;;;;;;5021700;28;20053;-77
2021/09/20 12:17:23;;;;;;;8.40;2.57;;;;;;;;;;5022755;28;20025;-74
2021/09/20 12:19:56;;;;;;;5.00;2.13;;;;;;;;;;5022816;28;20490;-75
2021/09/20 12:22:38;;;;;;;5.82;2.20;;;;;;;;;;5020768;28;20021;-74
2021/09/20 12:25:23;;;;;;;7.63;2.53;;;;;;;;;;5015516;28;20588;-75
2021/09/20 12:27:50;;;;;;;7.47;2.40;;;;;;;;;;4999461;28;20388;-74
2021/09/20 12:30:16;;;;;;;6.38;2.40;;;;;;;;;;5021586;28;20047;-74
2021/09/20 12:32:43;;;;;;;9.00;2.45;;;;;;;;;;5022000;28;20064;-75
2021/09/20 12:35:09;;;;;;;9.93;2.28;;;;;;;;;;5021752;28;20021;-73
2021/09/20 12:37:35;;;;;;;7.72;2.33;;;;;;;;;;5021188;28;20033;-74
2021/09/20 12:40:15;;;;;;;5.03;2.00;;;;;;;;;;5005375;28;20791;-74
2021/09/20 12:42:41;;;;;;;4.80;2.13;;;;;;;;;;5022936;28;20130;-73
2021/09/20 12:45:19;;;;;;;9.27;2.80;;;;;;;;;;5020719;28;20557;-75
2021/09/20 12:47:55;;;;;;;5.28;2.38;;;;;;;;;;5021853;28;20909;-74
2021/09/20 12:50:22;;;;;;;7.15;2.15;;;;;;;;;;5022316;28;20079;-73
2021/09/20 12:52:51;;;;;;;5.07;2.10;;;;;;;;;;5021981;28;20124;-75
2021/09/20 12:55:18;;;;;;;6.15;2.25;;;;;;;;;;5001756;28;20049;-76
2021/09/20 12:57:51;;;;;;;9.80;2.42;;;;;;;;;;5010793;28;20105;-77
2021/09/20 13:00:18;;;;;;;4.60;2.13;;;;;;;;;;5013641;28;20021;-72
2021/09/20 13:02:44;;;;;;;5.22;2.10;;;;;;;;;;5020197;28;20036;-75
2021/09/20 13:05:11;;;;;;;4.53;2.00;;;;;;;;;;5022364;28;20013;-74
2021/09/20 13:07:38;;;;;;;5.30;2.22;;;;;;;;;;5021256;28;20104;-74
2021/09/20 13:10:04;;;;;;;6.18;2.30;;;;;;;;;;5020257;28;20489;-76
2021/09/20 13:12:34;;;;;;;8.25;2.60;;;;;;;;;;5017525;28;20902;-74
2021/09/20 13:15:01;;;;;;;7.78;2.88;;;;;;;;;;5017759;28;20111;-74
2021/09/20 13:17:41;;;;;;;7.20;2.50;;;;;;;;;;5015920;28;20091;-74
2021/09/20 13:20:33;;;;;;;4.57;2.10;;;;;;;;;;5015941;28;20018;-75
2021/09/20 13:23:00;;;;;;;6.18;2.55;;;;;;;;;;5014539;28;20168;-76
2021/09/20 13:25:35;;;;;;;7.00;2.00;;;;;;;;;;5019223;28;20025;-74
2021/09/20 13:28:08;;;;;;;6.25;2.22;;;;;;;;;;5017488;28;20032;-75
2021/09/20 13:30:35;;;;;;;4.68;1.88;;;;;;;;;;5018980;28;20112;-76
2021/09/20 13:33:01;;;;;;;6.05;2.17;;;;;;;;;;5012278;28;20146;-75
2021/09/20 13:35:33;;;;;;;6.53;2.33;;;;;;;;;;5020213;28;20035;-75
2021/09/20 13:38:00;;;;;;;8.02;2.75;;;;;;;;;;5021339;28;20102;-74
2021/09/20 13:40:27;;;;;;;7.88;2.60;;;;;;;;;;5019925;28;20481;-74
2021/09/20 13:42:54;;;;;;;7.20;2.63;;;;;;;;;;5017038;28;20634;-74
2021/09/20 13:45:20;;;;;;;6.32;2.13;;;;;;;;;;5021144;28;20038;-75
2021/09/20 13:47:46;;;;;;;4.97;2.30;;;;;;;;;;5010422;28;20069;-76
2021/09/20 13:50:13;;;;;;;4.60;2.42;;;;;;;;;;5013332;28;20056;-74
2021/09/20 13:52:40;;;;;;;6.07;2.42;;;;;;;;;;5020828;28;20037;-74
2021/09/20 13:55:10;;;;;;;6.22;2.38;;;;;;;;;;5019580;28;20526;-75
2021/09/20 13:57:37;;;;;;;8.13;3.05;;;;;;;;;;5011954;28;20609;-77
2021/09/20 14:00:04;;;;;;;9.55;3.15;;;;;;;;;;5001362;28;20025;-74
2021/09/20 14:02:30;;;;;;;5.88;2.58;;;;;;;;;;4999970;28;20024;-74
2021/09/20 14:04:56;;;;;;;7.53;2.33;;;;;;;;;;5001890;28;20037;-74
2021/09/20 14:07:23;;;;;;;9.88;2.60;;;;;;;;;;5009852;28;20152;-75
2021/09/20 14:09:49;;;;;;;9.38;2.10;;;;;;;;;;5020883;28;20100;-74
2021/09/20 14:12:16;;;;;;;6.40;2.20;;;;;;;;;;5020766;28;20037;-75
2021/09/20 14:14:42;;;;;;;9.20;2.38;;;;;;;;;;5018936;28;20500;-75
2021/09/20 14:17:09;;;;;;;7.53;2.20;;;;;;;;;;5020085;28;20505;-74
2021/09/20 14:19:35;;;;;;;6.88;2.30;;;;;;;;;;5021583;28;20536;-75
2021/09/20 14:22:02;;;;;;;8.90;2.88;;;;;;;;;;5020914;28;20654;-74
2021/09/20 14:24:28;;;;;;;3.58;2.10;;;;;;;;;;5020507;28;20018;-75
2021/09/20 14:26:54;;;;;;;4.40;2.05;;;;;;;;;;5001908;28;20120;-73
2021/09/20 14:29:21;;;;;;;9.85;2.72;;;;;;;;;;5021069;28;20129;-74
2021/09/20 14:31:47;;;;;;;8.25;2.72;;;;;;;;;;5023307;28;20236;-74
2021/09/20 14:34:13;;;;;;;8.57;2.50;;;;;;;;;;5024547;28;20630;-74
2021/09/20 14:36:39;;;;;;;6.55;2.58;;;;;;;;;;5024262;28;20065;-74
2021/09/20 14:39:05;;;;;;;7.40;2.85;;;;;;;;;;5020540;28;20036;-75